sensor_id;sensor_type;location;lat;lon;timestamp;temperature;humidity
71128;SHT30;59249;59.736;30.568;2023-07-30T00:01:59;16.51;86.14
71128;SHT30;59249;59.736;30.568;2023-07-30T00:04:30;16.52;86.11
71128;SHT30;59249;59.736;30.568;2023-07-30T00:06:58;16.44;86.27
71128;SHT30;59249;59.736;30.568;2023-07-30T00:09:27;16.42;86.33
71128;SHT30;59249;59.736;30.568;2023-07-30T00:11:56;16.44;86.31
71128;SHT30;59249;59.736;30.568;2023-07-30T00:14:25;16.46;86.32
71128;SHT30;59249;59.736;30.568;2023-07-30T00:16:53;16.42;86.51
71128;SHT30;59249;59.736;30.568;2023-07-30T00:19:23;16.41;87.01
71128;SHT30;59249;59.736;30.568;2023-07-30T00:21:54;16.34;87.15
71128;SHT30;59249;59.736;30.568;2023-07-30T00:24:23;16.35;87.23
71128;SHT30;59249;59.736;30.568;2023-07-30T00:26:52;16.31;87.42
71128;SHT30;59249;59.736;30.568;2023-07-30T00:29:21;16.30;87.51
71128;SHT30;59249;59.736;30.568;2023-07-30T00:31:50;16.28;87.54
71128;SHT30;59249;59.736;30.568;2023-07-30T00:34:18;16.29;87.40
71128;SHT30;59249;59.736;30.568;2023-07-30T00:36:47;16.25;87.37
71128;SHT30;59249;59.736;30.568;2023-07-30T00:39:17;16.28;87.62
71128;SHT30;59249;59.736;30.568;2023-07-30T00:41:46;16.32;87.54
71128;SHT30;59249;59.736;30.568;2023-07-30T00:44:15;16.23;88.15
71128;SHT30;59249;59.736;30.568;2023-07-30T00:46:44;16.18;88.20
71128;SHT30;59249;59.736;30.568;2023-07-30T00:49:13;16.22;88.13
71128;SHT30;59249;59.736;30.568;2023-07-30T00:51:42;16.22;88.17
71128;SHT30;59249;59.736;30.568;2023-07-30T00:54:12;16.25;88.25
71128;SHT30;59249;59.736;30.568;2023-07-30T00:56:50;16.21;88.37
71128;SHT30;59249;59.736;30.568;2023-07-30T00:59:20;16.15;88.41
71128;SHT30;59249;59.736;30.568;2023-07-30T01:01:51;16.13;88.62
71128;SHT30;59249;59.736;30.568;2023-07-30T01:04:21;16.18;88.36
71128;SHT30;59249;59.736;30.568;2023-07-30T01:06:50;16.24;88.15
71128;SHT30;59249;59.736;30.568;2023-07-30T01:09:19;16.19;88.30
71128;SHT30;59249;59.736;30.568;2023-07-30T01:11:51;16.18;88.47
71128;SHT30;59249;59.736;30.568;2023-07-30T01:14:21;16.16;88.42
71128;SHT30;59249;59.736;30.568;2023-07-30T01:16:50;16.16;88.39
71128;SHT30;59249;59.736;30.568;2023-07-30T01:19:19;16.16;88.59
71128;SHT30;59249;59.736;30.568;2023-07-30T01:21:50;16.14;88.65
71128;SHT30;59249;59.736;30.568;2023-07-30T01:24:19;16.14;88.53
71128;SHT30;59249;59.736;30.568;2023-07-30T01:26:55;16.21;88.32
71128;SHT30;59249;59.736;30.568;2023-07-30T01:29:33;16.12;88.42
71128;SHT30;59249;59.736;30.568;2023-07-30T01:32:07;16.16;88.26
71128;SHT30;59249;59.736;30.568;2023-07-30T01:34:39;16.17;88.27
71128;SHT30;59249;59.736;30.568;2023-07-30T01:37:12;16.18;88.11
71128;SHT30;59249;59.736;30.568;2023-07-30T01:39:44;16.14;88.21
71128;SHT30;59249;59.736;30.568;2023-07-30T01:42:14;16.16;88.08
71128;SHT30;59249;59.736;30.568;2023-07-30T01:44:43;16.15;88.19
71128;SHT30;59249;59.736;30.568;2023-07-30T01:47:12;16.20;88.05
71128;SHT30;59249;59.736;30.568;2023-07-30T01:49:41;16.23;88.03
71128;SHT30;59249;59.736;30.568;2023-07-30T01:52:11;16.22;87.89
71128;SHT30;59249;59.736;30.568;2023-07-30T01:54:40;16.23;87.95
71128;SHT30;59249;59.736;30.568;2023-07-30T01:57:09;16.17;88.06
71128;SHT30;59249;59.736;30.568;2023-07-30T01:59:40;16.24;87.95
71128;SHT30;59249;59.736;30.568;2023-07-30T02:02:09;16.25;87.91
71128;SHT30;59249;59.736;30.568;2023-07-30T02:04:37;16.29;88.04
71128;SHT30;59249;59.736;30.568;2023-07-30T02:07:06;16.27;88.07
71128;SHT30;59249;59.736;30.568;2023-07-30T02:09:36;16.29;87.86
71128;SHT30;59249;59.736;30.568;2023-07-30T02:12:07;16.31;87.91
71128;SHT30;59249;59.736;30.568;2023-07-30T02:14:36;16.36;87.89
71128;SHT30;59249;59.736;30.568;2023-07-30T02:17:08;16.40;87.41
71128;SHT30;59249;59.736;30.568;2023-07-30T02:19:37;16.44;87.32
71128;SHT30;59249;59.736;30.568;2023-07-30T02:22:06;16.46;86.95
71128;SHT30;59249;59.736;30.568;2023-07-30T02:24:36;16.47;86.95
71128;SHT30;59249;59.736;30.568;2023-07-30T02:27:05;16.49;86.92
71128;SHT30;59249;59.736;30.568;2023-07-30T02:29:34;16.47;86.85
71128;SHT30;59249;59.736;30.568;2023-07-30T02:32:04;16.52;86.76
71128;SHT30;59249;59.736;30.568;2023-07-30T02:34:33;16.58;86.75
71128;SHT30;59249;59.736;30.568;2023-07-30T02:37:02;16.62;86.63
71128;SHT30;59249;59.736;30.568;2023-07-30T02:39:31;16.65;86.59
71128;SHT30;59249;59.736;30.568;2023-07-30T02:42:02;16.65;86.22
71128;SHT30;59249;59.736;30.568;2023-07-30T02:44:32;16.74;86.25
71128;SHT30;59249;59.736;30.568;2023-07-30T02:47:05;16.75;86.23
71128;SHT30;59249;59.736;30.568;2023-07-30T02:49:34;16.75;86.31
71128;SHT30;59249;59.736;30.568;2023-07-30T02:52:03;16.81;86.31
71128;SHT30;59249;59.736;30.568;2023-07-30T02:54:33;16.84;86.28
71128;SHT30;59249;59.736;30.568;2023-07-30T02:57:04;16.88;86.37
71128;SHT30;59249;59.736;30.568;2023-07-30T02:59:33;16.85;86.48
71128;SHT30;59249;59.736;30.568;2023-07-30T03:02:04;16.93;86.40
71128;SHT30;59249;59.736;30.568;2023-07-30T03:04:34;16.97;86.43
71128;SHT30;59249;59.736;30.568;2023-07-30T03:07:04;17.02;86.15
71128;SHT30;59249;59.736;30.568;2023-07-30T03:09:37;17.10;86.14
71128;SHT30;59249;59.736;30.568;2023-07-30T03:12:08;17.14;86.13
71128;SHT30;59249;59.736;30.568;2023-07-30T03:14:37;17.16;86.08
71128;SHT30;59249;59.736;30.568;2023-07-30T03:17:06;17.23;85.95
71128;SHT30;59249;59.736;30.568;2023-07-30T03:19:34;17.27;85.85
71128;SHT30;59249;59.736;30.568;2023-07-30T03:22:04;17.30;85.81
71128;SHT30;59249;59.736;30.568;2023-07-30T03:24:33;17.43;85.80
71128;SHT30;59249;59.736;30.568;2023-07-30T03:27:02;17.67;85.46
71128;SHT30;59249;59.736;30.568;2023-07-30T03:29:32;17.83;84.49
71128;SHT30;59249;59.736;30.568;2023-07-30T03:32:01;17.89;84.14
71128;SHT30;59249;59.736;30.568;2023-07-30T03:34:30;17.90;83.68
71128;SHT30;59249;59.736;30.568;2023-07-30T03:36:59;17.91;83.79
71128;SHT30;59249;59.736;30.568;2023-07-30T03:39:28;17.92;83.91
71128;SHT30;59249;59.736;30.568;2023-07-30T03:41:57;17.85;84.05
71128;SHT30;59249;59.736;30.568;2023-07-30T03:44:26;17.78;84.65
71128;SHT30;59249;59.736;30.568;2023-07-30T03:46:56;17.74;84.96
71128;SHT30;59249;59.736;30.568;2023-07-30T03:49:25;17.79;84.62
71128;SHT30;59249;59.736;30.568;2023-07-30T03:51:54;17.82;84.63
71128;SHT30;59249;59.736;30.568;2023-07-30T03:54:23;17.85;84.48
71128;SHT30;59249;59.736;30.568;2023-07-30T03:56:53;17.89;84.20
71128;SHT30;59249;59.736;30.568;2023-07-30T03:59:22;17.96;84.03
71128;SHT30;59249;59.736;30.568;2023-07-30T04:01:51;17.97;84.03
71128;SHT30;59249;59.736;30.568;2023-07-30T04:04:22;18.06;83.85
71128;SHT30;59249;59.736;30.568;2023-07-30T04:06:51;18.11;83.79
71128;SHT30;59249;59.736;30.568;2023-07-30T04:09:19;18.18;83.67
71128;SHT30;59249;59.736;30.568;2023-07-30T04:11:48;18.18;83.48
71128;SHT30;59249;59.736;30.568;2023-07-30T04:14:17;18.24;83.31
71128;SHT30;59249;59.736;30.568;2023-07-30T04:16:53;18.14;83.51
71128;SHT30;59249;59.736;30.568;2023-07-30T04:19:24;18.16;83.56
71128;SHT30;59249;59.736;30.568;2023-07-30T04:21:53;18.24;83.48
71128;SHT30;59249;59.736;30.568;2023-07-30T04:24:22;18.12;83.49
71128;SHT30;59249;59.736;30.568;2023-07-30T04:26:53;18.08;83.58
71128;SHT30;59249;59.736;30.568;2023-07-30T04:29:34;18.04;83.70
71128;SHT30;59249;59.736;30.568;2023-07-30T04:32:04;18.05;83.75
71128;SHT30;59249;59.736;30.568;2023-07-30T04:34:35;18.09;83.78
71128;SHT30;59249;59.736;30.568;2023-07-30T04:37:04;18.21;83.46
71128;SHT30;59249;59.736;30.568;2023-07-30T04:39:35;18.30;83.29
71128;SHT30;59249;59.736;30.568;2023-07-30T04:42:05;18.30;83.06
71128;SHT30;59249;59.736;30.568;2023-07-30T04:44:34;18.36;83.25
71128;SHT30;59249;59.736;30.568;2023-07-30T04:47:10;18.55;83.04
71128;SHT30;59249;59.736;30.568;2023-07-30T04:49:40;18.63;82.84
71128;SHT30;59249;59.736;30.568;2023-07-30T04:52:09;18.74;82.51
71128;SHT30;59249;59.736;30.568;2023-07-30T04:54:38;18.83;82.14
71128;SHT30;59249;59.736;30.568;2023-07-30T04:57:07;18.87;81.75
71128;SHT30;59249;59.736;30.568;2023-07-30T04:59:36;18.96;81.20
71128;SHT30;59249;59.736;30.568;2023-07-30T05:02:05;18.98;81.09
71128;SHT30;59249;59.736;30.568;2023-07-30T05:04:34;19.03;80.61
71128;SHT30;59249;59.736;30.568;2023-07-30T05:07:05;19.19;80.25
71128;SHT30;59249;59.736;30.568;2023-07-30T05:09:34;19.27;80.31
71128;SHT30;59249;59.736;30.568;2023-07-30T05:12:04;19.33;79.43
71128;SHT30;59249;59.736;30.568;2023-07-30T05:14:33;19.39;79.42
71128;SHT30;59249;59.736;30.568;2023-07-30T05:17:02;19.54;79.21
71128;SHT30;59249;59.736;30.568;2023-07-30T05:19:31;19.68;79.29
71128;SHT30;59249;59.736;30.568;2023-07-30T05:22:00;19.70;78.89
71128;SHT30;59249;59.736;30.568;2023-07-30T05:24:31;19.72;78.63
71128;SHT30;59249;59.736;30.568;2023-07-30T05:27:00;19.75;78.54
71128;SHT30;59249;59.736;30.568;2023-07-30T05:29:30;19.81;78.40
71128;SHT30;59249;59.736;30.568;2023-07-30T05:31:59;19.80;78.43
71128;SHT30;59249;59.736;30.568;2023-07-30T05:34:27;19.73;78.55
71128;SHT30;59249;59.736;30.568;2023-07-30T05:36:58;19.70;78.63
71128;SHT30;59249;59.736;30.568;2023-07-30T05:39:27;19.73;78.43
71128;SHT30;59249;59.736;30.568;2023-07-30T05:41:57;19.75;78.32
71128;SHT30;59249;59.736;30.568;2023-07-30T05:44:26;19.85;78.42
71128;SHT30;59249;59.736;30.568;2023-07-30T05:46:56;19.89;78.27
71128;SHT30;59249;59.736;30.568;2023-07-30T05:49:25;19.94;77.94
71128;SHT30;59249;59.736;30.568;2023-07-30T05:51:54;20.01;77.97
71128;SHT30;59249;59.736;30.568;2023-07-30T05:54:23;20.08;77.77
71128;SHT30;59249;59.736;30.568;2023-07-30T05:56:51;20.04;77.70
71128;SHT30;59249;59.736;30.568;2023-07-30T05:59:21;20.07;77.61
71128;SHT30;59249;59.736;30.568;2023-07-30T06:01:51;20.11;77.63
71128;SHT30;59249;59.736;30.568;2023-07-30T06:04:20;20.27;77.63
71128;SHT30;59249;59.736;30.568;2023-07-30T06:06:48;20.45;77.35
71128;SHT30;59249;59.736;30.568;2023-07-30T06:09:17;20.60;76.75
71128;SHT30;59249;59.736;30.568;2023-07-30T06:11:46;20.76;76.64
71128;SHT30;59249;59.736;30.568;2023-07-30T06:14:16;20.87;76.04
71128;SHT30;59249;59.736;30.568;2023-07-30T06:16:46;20.92;76.19
71128;SHT30;59249;59.736;30.568;2023-07-30T06:19:16;21.00;76.06
71128;SHT30;59249;59.736;30.568;2023-07-30T06:21:45;21.09;75.31
71128;SHT30;59249;59.736;30.568;2023-07-30T06:24:14;21.03;74.81
71128;SHT30;59249;59.736;30.568;2023-07-30T06:26:42;21.10;74.72
71128;SHT30;59249;59.736;30.568;2023-07-30T06:29:11;21.19;74.84
71128;SHT30;59249;59.736;30.568;2023-07-30T06:31:40;21.12;74.58
71128;SHT30;59249;59.736;30.568;2023-07-30T06:34:10;21.20;74.74
71128;SHT30;59249;59.736;30.568;2023-07-30T06:36:39;21.24;74.51
71128;SHT30;59249;59.736;30.568;2023-07-30T06:39:08;21.37;74.98
71128;SHT30;59249;59.736;30.568;2023-07-30T06:41:37;21.52;74.86
71128;SHT30;59249;59.736;30.568;2023-07-30T06:44:06;21.61;74.91
71128;SHT30;59249;59.736;30.568;2023-07-30T06:46:36;21.63;74.78
71128;SHT30;59249;59.736;30.568;2023-07-30T06:49:04;21.73;74.44
71128;SHT30;59249;59.736;30.568;2023-07-30T06:51:34;21.70;74.28
71128;SHT30;59249;59.736;30.568;2023-07-30T06:54:04;21.66;74.39
71128;SHT30;59249;59.736;30.568;2023-07-30T06:56:33;21.64;74.60
71128;SHT30;59249;59.736;30.568;2023-07-30T06:59:02;21.63;74.42
71128;SHT30;59249;59.736;30.568;2023-07-30T07:01:31;21.71;74.62
71128;SHT30;59249;59.736;30.568;2023-07-30T07:04:00;21.66;74.65
71128;SHT30;59249;59.736;30.568;2023-07-30T07:06:29;21.67;74.68
71128;SHT30;59249;59.736;30.568;2023-07-30T07:08:59;21.65;74.03
71128;SHT30;59249;59.736;30.568;2023-07-30T07:11:29;21.50;74.24
71128;SHT30;59249;59.736;30.568;2023-07-30T07:13:59;21.51;74.15
71128;SHT30;59249;59.736;30.568;2023-07-30T07:16:28;21.52;74.04
71128;SHT30;59249;59.736;30.568;2023-07-30T07:18:57;21.50;74.37
71128;SHT30;59249;59.736;30.568;2023-07-30T07:21:26;21.62;74.31
71128;SHT30;59249;59.736;30.568;2023-07-30T07:23:56;21.57;74.04
71128;SHT30;59249;59.736;30.568;2023-07-30T07:26:26;21.61;74.20
71128;SHT30;59249;59.736;30.568;2023-07-30T07:28:56;21.61;73.47
71128;SHT30;59249;59.736;30.568;2023-07-30T07:31:24;21.64;73.47
71128;SHT30;59249;59.736;30.568;2023-07-30T07:33:53;21.75;73.51
71128;SHT30;59249;59.736;30.568;2023-07-30T07:36:23;21.76;73.48
71128;SHT30;59249;59.736;30.568;2023-07-30T07:38:52;21.82;72.73
71128;SHT30;59249;59.736;30.568;2023-07-30T07:41:21;21.80;72.80
71128;SHT30;59249;59.736;30.568;2023-07-30T07:43:53;21.85;72.98
71128;SHT30;59249;59.736;30.568;2023-07-30T07:46:22;21.87;72.20
71128;SHT30;59249;59.736;30.568;2023-07-30T07:48:51;21.98;72.10
71128;SHT30;59249;59.736;30.568;2023-07-30T07:51:20;21.98;71.85
71128;SHT30;59249;59.736;30.568;2023-07-30T07:53:49;22.05;71.57
71128;SHT30;59249;59.736;30.568;2023-07-30T07:56:18;22.16;70.79
71128;SHT30;59249;59.736;30.568;2023-07-30T07:58:47;22.18;70.95
71128;SHT30;59249;59.736;30.568;2023-07-30T08:01:18;22.22;70.80
71128;SHT30;59249;59.736;30.568;2023-07-30T08:03:46;22.31;70.44
71128;SHT30;59249;59.736;30.568;2023-07-30T08:06:15;22.27;69.22
71128;SHT30;59249;59.736;30.568;2023-07-30T08:08:44;22.33;69.42
71128;SHT30;59249;59.736;30.568;2023-07-30T08:11:13;22.44;69.70
71128;SHT30;59249;59.736;30.568;2023-07-30T08:13:42;22.52;69.25
71128;SHT30;59249;59.736;30.568;2023-07-30T08:16:10;22.55;68.83
71128;SHT30;59249;59.736;30.568;2023-07-30T08:18:41;22.55;68.01
71128;SHT30;59249;59.736;30.568;2023-07-30T08:21:09;22.65;67.82
71128;SHT30;59249;59.736;30.568;2023-07-30T08:23:38;22.75;67.41
71128;SHT30;59249;59.736;30.568;2023-07-30T08:26:08;22.77;67.78
71128;SHT30;59249;59.736;30.568;2023-07-30T08:28:37;22.87;67.87
71128;SHT30;59249;59.736;30.568;2023-07-30T08:31:06;22.97;67.75
71128;SHT30;59249;59.736;30.568;2023-07-30T08:33:35;23.10;67.55
71128;SHT30;59249;59.736;30.568;2023-07-30T08:36:05;23.26;66.81
71128;SHT30;59249;59.736;30.568;2023-07-30T08:38:34;23.31;65.61
71128;SHT30;59249;59.736;30.568;2023-07-30T08:41:02;23.41;66.02
71128;SHT30;59249;59.736;30.568;2023-07-30T08:43:32;23.53;65.60
71128;SHT30;59249;59.736;30.568;2023-07-30T08:46:01;23.75;65.48
71128;SHT30;59249;59.736;30.568;2023-07-30T08:48:30;23.89;64.29
71128;SHT30;59249;59.736;30.568;2023-07-30T08:51:00;23.93;63.26
71128;SHT30;59249;59.736;30.568;2023-07-30T08:53:32;24.01;63.26
71128;SHT30;59249;59.736;30.568;2023-07-30T08:56:02;24.13;63.68
71128;SHT30;59249;59.736;30.568;2023-07-30T08:58:45;24.16;62.12
71128;SHT30;59249;59.736;30.568;2023-07-30T09:01:15;24.20;62.41
71128;SHT30;59249;59.736;30.568;2023-07-30T09:03:48;24.32;62.64
71128;SHT30;59249;59.736;30.568;2023-07-30T09:06:18;24.40;61.95
71128;SHT30;59249;59.736;30.568;2023-07-30T09:08:48;24.60;61.27
71128;SHT30;59249;59.736;30.568;2023-07-30T09:11:17;24.73;61.10
71128;SHT30;59249;59.736;30.568;2023-07-30T09:13:47;24.70;59.39
71128;SHT30;59249;59.736;30.568;2023-07-30T09:16:16;24.62;58.93
71128;SHT30;59249;59.736;30.568;2023-07-30T09:18:48;24.57;59.04
71128;SHT30;59249;59.736;30.568;2023-07-30T09:21:18;24.64;58.68
71128;SHT30;59249;59.736;30.568;2023-07-30T09:23:48;24.60;59.55
71128;SHT30;59249;59.736;30.568;2023-07-30T09:26:17;24.61;59.68
71128;SHT30;59249;59.736;30.568;2023-07-30T09:28:46;24.72;58.56
71128;SHT30;59249;59.736;30.568;2023-07-30T09:31:15;24.79;58.68
71128;SHT30;59249;59.736;30.568;2023-07-30T09:33:49;24.76;58.16
71128;SHT30;59249;59.736;30.568;2023-07-30T09:36:19;24.73;58.66
71128;SHT30;59249;59.736;30.568;2023-07-30T09:38:49;24.81;58.93
71128;SHT30;59249;59.736;30.568;2023-07-30T09:41:19;24.99;57.75
71128;SHT30;59249;59.736;30.568;2023-07-30T09:43:48;25.02;57.51
71128;SHT30;59249;59.736;30.568;2023-07-30T09:46:29;24.96;56.64
71128;SHT30;59249;59.736;30.568;2023-07-30T09:48:59;24.89;57.11
71128;SHT30;59249;59.736;30.568;2023-07-30T09:51:29;24.96;57.37
71128;SHT30;59249;59.736;30.568;2023-07-30T09:54:01;25.02;57.12
71128;SHT30;59249;59.736;30.568;2023-07-30T09:56:30;25.00;55.42
71128;SHT30;59249;59.736;30.568;2023-07-30T09:58:59;24.96;55.28
71128;SHT30;59249;59.736;30.568;2023-07-30T10:01:29;25.04;54.10
71128;SHT30;59249;59.736;30.568;2023-07-30T10:04:06;25.20;55.00
71128;SHT30;59249;59.736;30.568;2023-07-30T10:06:40;25.31;55.39
71128;SHT30;59249;59.736;30.568;2023-07-30T10:09:12;25.57;55.34
71128;SHT30;59249;59.736;30.568;2023-07-30T10:11:45;25.65;53.95
71128;SHT30;59249;59.736;30.568;2023-07-30T10:14:15;25.74;53.46
71128;SHT30;59249;59.736;30.568;2023-07-30T10:16:54;25.85;53.14
71128;SHT30;59249;59.736;30.568;2023-07-30T10:19:26;26.00;52.96
71128;SHT30;59249;59.736;30.568;2023-07-30T10:22:02;26.05;52.54
71128;SHT30;59249;59.736;30.568;2023-07-30T10:24:58;26.07;52.69
71128;SHT30;59249;59.736;30.568;2023-07-30T10:27:37;26.27;52.46
71128;SHT30;59249;59.736;30.568;2023-07-30T10:30:12;26.22;51.66
71128;SHT30;59249;59.736;30.568;2023-07-30T10:32:57;26.39;51.07
71128;SHT30;59249;59.736;30.568;2023-07-30T10:35:42;26.49;51.44
71128;SHT30;59249;59.736;30.568;2023-07-30T10:38:19;26.42;50.88
71128;SHT30;59249;59.736;30.568;2023-07-30T10:41:06;26.39;50.64
71128;SHT30;59249;59.736;30.568;2023-07-30T10:43:38;26.35;50.56
71128;SHT30;59249;59.736;30.568;2023-07-30T10:46:09;26.44;50.16
71128;SHT30;59249;59.736;30.568;2023-07-30T10:48:40;26.35;50.61
71128;SHT30;59249;59.736;30.568;2023-07-30T10:51:12;26.26;50.55
71128;SHT30;59249;59.736;30.568;2023-07-30T10:53:42;26.27;51.47
71128;SHT30;59249;59.736;30.568;2023-07-30T10:56:17;26.35;51.75
71128;SHT30;59249;59.736;30.568;2023-07-30T10:58:51;26.34;51.03
71128;SHT30;59249;59.736;30.568;2023-07-30T11:01:24;26.14;51.04
71128;SHT30;59249;59.736;30.568;2023-07-30T11:03:54;25.91;51.51
71128;SHT30;59249;59.736;30.568;2023-07-30T11:06:25;25.91;51.73
71128;SHT30;59249;59.736;30.568;2023-07-30T11:08:54;25.83;51.66
71128;SHT30;59249;59.736;30.568;2023-07-30T11:11:24;25.92;51.44
71128;SHT30;59249;59.736;30.568;2023-07-30T11:13:54;26.06;50.99
71128;SHT30;59249;59.736;30.568;2023-07-30T11:16:23;26.13;51.13
71128;SHT30;59249;59.736;30.568;2023-07-30T11:18:52;26.29;50.62
71128;SHT30;59249;59.736;30.568;2023-07-30T11:21:20;26.39;50.59
71128;SHT30;59249;59.736;30.568;2023-07-30T11:23:51;26.38;50.34
71128;SHT30;59249;59.736;30.568;2023-07-30T11:26:20;26.31;50.84
71128;SHT30;59249;59.736;30.568;2023-07-30T11:28:50;26.35;51.18
71128;SHT30;59249;59.736;30.568;2023-07-30T11:31:19;26.20;50.80
71128;SHT30;59249;59.736;30.568;2023-07-30T11:33:50;26.20;51.04
71128;SHT30;59249;59.736;30.568;2023-07-30T11:36:23;26.31;50.44
71128;SHT30;59249;59.736;30.568;2023-07-30T11:38:53;26.41;50.14
71128;SHT30;59249;59.736;30.568;2023-07-30T11:41:23;26.34;50.42
71128;SHT30;59249;59.736;30.568;2023-07-30T11:43:55;26.18;50.69
71128;SHT30;59249;59.736;30.568;2023-07-30T11:46:23;25.97;50.78
71128;SHT30;59249;59.736;30.568;2023-07-30T11:49:10;25.74;51.83
71128;SHT30;59249;59.736;30.568;2023-07-30T11:51:40;25.64;52.43
71128;SHT30;59249;59.736;30.568;2023-07-30T11:54:19;25.54;52.44
71128;SHT30;59249;59.736;30.568;2023-07-30T11:56:54;25.61;53.20
71128;SHT30;59249;59.736;30.568;2023-07-30T11:59:25;25.70;53.36
71128;SHT30;59249;59.736;30.568;2023-07-30T12:01:54;25.92;52.44
71128;SHT30;59249;59.736;30.568;2023-07-30T12:04:24;26.31;51.60
71128;SHT30;59249;59.736;30.568;2023-07-30T12:06:53;26.53;50.66
71128;SHT30;59249;59.736;30.568;2023-07-30T12:09:24;26.72;50.05
71128;SHT30;59249;59.736;30.568;2023-07-30T12:11:56;26.79;49.64
71128;SHT30;59249;59.736;30.568;2023-07-30T12:14:29;26.97;48.54
71128;SHT30;59249;59.736;30.568;2023-07-30T12:16:59;27.13;48.78
71128;SHT30;59249;59.736;30.568;2023-07-30T12:19:28;27.08;48.37
71128;SHT30;59249;59.736;30.568;2023-07-30T12:21:57;27.15;48.34
71128;SHT30;59249;59.736;30.568;2023-07-30T12:24:26;27.40;47.74
71128;SHT30;59249;59.736;30.568;2023-07-30T12:26:55;27.58;47.87
71128;SHT30;59249;59.736;30.568;2023-07-30T12:29:26;27.55;48.43
71128;SHT30;59249;59.736;30.568;2023-07-30T12:31:54;27.18;48.81
71128;SHT30;59249;59.736;30.568;2023-07-30T12:34:24;27.02;49.41
71128;SHT30;59249;59.736;30.568;2023-07-30T12:36:53;27.04;49.77
71128;SHT30;59249;59.736;30.568;2023-07-30T12:39:23;27.01;49.84
71128;SHT30;59249;59.736;30.568;2023-07-30T12:41:52;27.03;49.70
71128;SHT30;59249;59.736;30.568;2023-07-30T12:44:21;26.98;49.24
71128;SHT30;59249;59.736;30.568;2023-07-30T12:46:51;26.93;49.44
71128;SHT30;59249;59.736;30.568;2023-07-30T12:49:20;26.90;48.66
71128;SHT30;59249;59.736;30.568;2023-07-30T12:51:49;27.11;48.29
71128;SHT30;59249;59.736;30.568;2023-07-30T12:54:18;26.97;47.70
71128;SHT30;59249;59.736;30.568;2023-07-30T12:56:50;26.88;48.19
71128;SHT30;59249;59.736;30.568;2023-07-30T12:59:23;26.79;48.54
71128;SHT30;59249;59.736;30.568;2023-07-30T13:01:53;26.81;48.73
71128;SHT30;59249;59.736;30.568;2023-07-30T13:04:25;26.91;49.11
71128;SHT30;59249;59.736;30.568;2023-07-30T13:06:55;26.85;48.89
71128;SHT30;59249;59.736;30.568;2023-07-30T13:09:23;26.92;48.36
71128;SHT30;59249;59.736;30.568;2023-07-30T13:11:54;26.96;48.27
71128;SHT30;59249;59.736;30.568;2023-07-30T13:14:22;27.00;48.65
71128;SHT30;59249;59.736;30.568;2023-07-30T13:16:53;27.03;47.77
71128;SHT30;59249;59.736;30.568;2023-07-30T13:19:22;27.10;47.55
71128;SHT30;59249;59.736;30.568;2023-07-30T13:21:51;27.26;48.17
71128;SHT30;59249;59.736;30.568;2023-07-30T13:24:20;27.34;47.26
71128;SHT30;59249;59.736;30.568;2023-07-30T13:26:49;27.58;47.13
71128;SHT30;59249;59.736;30.568;2023-07-30T13:29:17;27.60;46.56
71128;SHT30;59249;59.736;30.568;2023-07-30T13:31:50;27.43;46.06
71128;SHT30;59249;59.736;30.568;2023-07-30T13:34:22;27.37;45.74
71128;SHT30;59249;59.736;30.568;2023-07-30T13:36:51;27.43;46.18
71128;SHT30;59249;59.736;30.568;2023-07-30T13:39:21;27.33;46.27
71128;SHT30;59249;59.736;30.568;2023-07-30T13:41:52;27.37;46.01
71128;SHT30;59249;59.736;30.568;2023-07-30T13:44:23;27.51;45.54
71128;SHT30;59249;59.736;30.568;2023-07-30T13:46:52;27.42;45.20
71128;SHT30;59249;59.736;30.568;2023-07-30T13:49:24;27.46;45.43
71128;SHT30;59249;59.736;30.568;2023-07-30T13:51:55;27.61;45.62
71128;SHT30;59249;59.736;30.568;2023-07-30T13:54:26;27.69;44.99
71128;SHT30;59249;59.736;30.568;2023-07-30T13:56:55;27.67;45.57
71128;SHT30;59249;59.736;30.568;2023-07-30T13:59:24;27.66;45.86
71128;SHT30;59249;59.736;30.568;2023-07-30T14:01:55;27.55;44.91
71128;SHT30;59249;59.736;30.568;2023-07-30T14:04:27;27.46;45.39
71128;SHT30;59249;59.736;30.568;2023-07-30T14:07:00;27.24;46.28
71128;SHT30;59249;59.736;30.568;2023-07-30T14:09:31;27.10;46.56
71128;SHT30;59249;59.736;30.568;2023-07-30T14:12:03;27.04;46.71
71128;SHT30;59249;59.736;30.568;2023-07-30T14:14:33;27.14;47.06
71128;SHT30;59249;59.736;30.568;2023-07-30T14:17:02;27.29;46.62
71128;SHT30;59249;59.736;30.568;2023-07-30T14:19:35;27.34;46.36
71128;SHT30;59249;59.736;30.568;2023-07-30T14:22:06;27.28;46.94
71128;SHT30;59249;59.736;30.568;2023-07-30T14:24:35;27.01;46.77
71128;SHT30;59249;59.736;30.568;2023-07-30T14:27:12;27.11;47.30
71128;SHT30;59249;59.736;30.568;2023-07-30T14:29:49;27.37;47.35
71128;SHT30;59249;59.736;30.568;2023-07-30T14:32:21;27.70;46.59
71128;SHT30;59249;59.736;30.568;2023-07-30T14:34:52;28.17;46.09
71128;SHT30;59249;59.736;30.568;2023-07-30T14:37:21;28.51;45.99
71128;SHT30;59249;59.736;30.568;2023-07-30T14:39:52;28.76;44.80
71128;SHT30;59249;59.736;30.568;2023-07-30T14:42:22;29.04;44.47
71128;SHT30;59249;59.736;30.568;2023-07-30T14:44:52;29.32;44.33
71128;SHT30;59249;59.736;30.568;2023-07-30T14:47:21;29.53;44.79
71128;SHT30;59249;59.736;30.568;2023-07-30T14:49:52;29.56;45.21
71128;SHT30;59249;59.736;30.568;2023-07-30T14:52:21;29.90;45.28
71128;SHT30;59249;59.736;30.568;2023-07-30T14:54:50;29.84;45.02
71128;SHT30;59249;59.736;30.568;2023-07-30T14:57:20;30.02;45.18
71128;SHT30;59249;59.736;30.568;2023-07-30T15:04:33;29.93;46.11
71128;SHT30;59249;59.736;30.568;2023-07-30T15:07:21;30.16;44.59
71128;SHT30;59249;59.736;30.568;2023-07-30T15:09:53;30.09;44.36
71128;SHT30;59249;59.736;30.568;2023-07-30T15:12:22;30.15;44.15
71128;SHT30;59249;59.736;30.568;2023-07-30T15:14:51;30.28;44.07
71128;SHT30;59249;59.736;30.568;2023-07-30T15:17:21;30.49;43.93
71128;SHT30;59249;59.736;30.568;2023-07-30T15:19:51;30.78;43.64
71128;SHT30;59249;59.736;30.568;2023-07-30T15:22:23;30.92;42.36
71128;SHT30;59249;59.736;30.568;2023-07-30T15:24:52;31.12;42.36
71128;SHT30;59249;59.736;30.568;2023-07-30T15:45:22;31.26;40.55
71128;SHT30;59249;59.736;30.568;2023-07-30T15:52:11;31.77;39.31
71128;SHT30;59249;59.736;30.568;2023-07-30T15:54:45;31.82;39.84
71128;SHT30;59249;59.736;30.568;2023-07-30T15:57:39;31.88;39.77
71128;SHT30;59249;59.736;30.568;2023-07-30T16:00:10;31.86;39.94
71128;SHT30;59249;59.736;30.568;2023-07-30T16:03:01;32.05;40.00